createdAt,value
2018-08-04T00:01:33.491Z,12.13
2018-08-04T00:04:01.526Z,12.27
2018-08-04T00:06:33.029Z,11.57
2018-08-04T00:09:01.534Z,14.07
2018-08-04T00:11:29.593Z,13.63
2018-08-04T00:13:57.520Z,9.70
2018-08-04T00:16:25.760Z,13.37
2018-08-04T00:18:53.763Z,14.47
2018-08-04T00:21:21.758Z,11.57
2018-08-04T00:23:50.167Z,11.63
2018-08-04T00:26:18.048Z,11.70
2018-08-04T00:28:45.895Z,10.50
2018-08-04T00:31:14.356Z,13.57
2018-08-04T00:33:42.427Z,15.03
2018-08-04T00:36:10.446Z,11.80
2018-08-04T00:38:38.809Z,15.03
2018-08-04T00:41:06.797Z,13.10
2018-08-04T00:43:34.870Z,11.60
2018-08-04T00:46:02.995Z,11.57
2018-08-04T00:48:30.963Z,12.80
2018-08-04T00:50:58.864Z,12.50
2018-08-04T00:53:27.012Z,16.07
2018-08-04T00:55:54.893Z,13.47
2018-08-04T00:58:22.819Z,10.53
2018-08-04T01:00:50.993Z,13.63
2018-08-04T01:03:18.960Z,9.67
2018-08-04T01:05:46.865Z,14.23
2018-08-04T01:08:15.208Z,13.13
2018-08-04T01:10:43.129Z,10.53
2018-08-04T01:13:11.061Z,11.50
2018-08-04T01:15:39.115Z,13.53
2018-08-04T01:18:07.183Z,13.37
2018-08-04T01:20:35.181Z,12.70
2018-08-04T01:23:03.087Z,17.30
2018-08-04T01:25:31.060Z,10.63
2018-08-04T01:27:59.111Z,13.73
2018-08-04T01:30:27.418Z,13.30
2018-08-04T01:32:55.439Z,10.93
2018-08-04T01:35:23.444Z,13.50
2018-08-04T01:37:51.820Z,15.07
2018-08-04T01:40:19.744Z,11.87
2018-08-04T01:42:47.660Z,12.97
2018-08-04T01:45:15.569Z,13.53
2018-08-04T01:47:43.598Z,13.03
2018-08-04T01:50:11.406Z,15.20
2018-08-04T01:52:39.722Z,15.80
2018-08-04T01:55:07.716Z,11.87
2018-08-04T01:57:35.735Z,14.70
2018-08-04T02:00:03.961Z,12.73
2018-08-04T02:02:32.003Z,13.43
2018-08-04T02:04:59.799Z,13.93
2018-08-04T02:07:28.220Z,11.73
2018-08-04T02:09:56.283Z,14.87
2018-08-04T02:12:24.370Z,15.73
2018-08-04T02:14:52.594Z,13.00
2018-08-04T02:17:20.388Z,14.77
2018-08-04T02:19:48.380Z,14.73
2018-08-04T02:22:16.669Z,14.63
2018-08-04T02:24:44.600Z,15.13
2018-08-04T02:27:12.446Z,14.87
2018-08-04T02:29:40.663Z,18.13
2018-08-04T02:32:08.666Z,17.60
2018-08-04T02:34:36.807Z,14.40
2018-08-04T02:37:05.027Z,13.87
2018-08-04T02:39:33.062Z,15.47
2018-08-04T02:42:01.179Z,13.03
2018-08-04T02:44:29.442Z,16.23
2018-08-04T02:46:57.481Z,15.03
2018-08-04T02:49:27.388Z,16.13
2018-08-04T02:51:55.940Z,17.57
2018-08-04T02:54:23.911Z,12.87
2018-08-04T02:56:51.663Z,16.17
2018-08-04T02:59:19.986Z,17.87
2018-08-04T03:01:47.955Z,15.93
2018-08-04T03:04:15.959Z,13.37
2018-08-04T03:06:43.843Z,14.73
2018-08-04T03:09:12.451Z,12.33
2018-08-04T03:11:40.565Z,14.17
2018-08-04T03:14:08.567Z,14.77
2018-08-04T03:16:36.674Z,13.27
2018-08-04T03:19:04.796Z,15.63
2018-08-04T03:21:32.942Z,13.27
2018-08-04T03:24:00.928Z,12.67
2018-08-04T03:26:28.787Z,13.63
2018-08-04T03:28:57.009Z,17.17
2018-08-04T03:31:24.936Z,17.57
2018-08-04T03:33:52.840Z,12.63
2018-08-04T03:36:21.169Z,13.77
2018-08-04T03:38:49.264Z,13.73
2018-08-04T03:41:17.210Z,13.27
2018-08-04T03:43:45.157Z,15.13
2018-08-04T03:46:13.089Z,13.27
2018-08-04T03:48:40.963Z,15.53
2018-08-04T03:51:08.926Z,19.03
2018-08-04T03:53:37.080Z,16.97
2018-08-04T03:56:05.095Z,14.60
2018-08-04T03:58:33.382Z,15.97
2018-08-04T04:01:01.422Z,15.60
2018-08-04T04:03:29.437Z,19.73
2018-08-04T04:05:57.376Z,14.67
2018-08-04T04:08:25.306Z,16.73
2018-08-04T04:10:53.401Z,15.67
2018-08-04T04:13:21.351Z,19.00
2018-08-04T04:15:49.462Z,20.57
2018-08-04T04:18:17.476Z,19.17
2018-08-04T04:20:45.498Z,15.47
2018-08-04T04:23:13.394Z,15.13
2018-08-04T04:25:41.416Z,13.60
2018-08-04T04:28:09.581Z,12.97
2018-08-04T04:30:37.479Z,16.07
2018-08-04T04:33:05.394Z,13.43
2018-08-04T04:35:33.808Z,14.13
2018-08-04T04:38:01.871Z,16.53
2018-08-04T04:40:29.906Z,16.97
2018-08-04T04:42:58.420Z,15.00
2018-08-04T04:45:26.330Z,16.93
2018-08-04T04:47:54.119Z,13.78
2018-08-04T04:50:22.431Z,14.58
2018-08-04T04:52:50.364Z,15.10
2018-08-04T04:55:18.238Z,17.55
2018-08-04T04:57:46.502Z,14.28
2018-08-04T05:00:14.333Z,12.03
2018-08-04T05:02:42.443Z,17.85
2018-08-04T05:05:10.632Z,12.75
2018-08-04T05:07:38.763Z,12.10
2018-08-04T05:10:06.805Z,10.40
2018-08-04T05:12:34.858Z,12.68
2018-08-04T05:15:02.804Z,12.90
2018-08-04T05:17:30.628Z,12.03
2018-08-04T05:19:58.804Z,16.55
2018-08-04T05:22:26.783Z,9.83
2018-08-04T05:24:54.678Z,12.58
2018-08-04T05:27:23.029Z,12.63
2018-08-04T05:29:50.964Z,10.35
2018-08-04T05:32:18.801Z,11.08
2018-08-04T05:34:46.804Z,11.03
2018-08-04T05:37:14.879Z,9.53
2018-08-04T05:39:43.064Z,14.58
2018-08-04T05:42:11.021Z,11.93
2018-08-04T05:44:39.103Z,9.30
2018-08-04T05:47:12.916Z,9.08
2018-08-04T05:49:41.006Z,9.75
2018-08-04T05:52:09.060Z,10.63
2018-08-04T05:54:37.510Z,10.63
2018-08-04T05:57:05.601Z,10.10
2018-08-04T05:59:33.628Z,9.98
2018-08-04T06:02:02.151Z,12.58
2018-08-04T06:04:30.103Z,8.50
2018-08-04T06:06:58.472Z,12.73
2018-08-04T06:09:27.000Z,10.63
2018-08-04T06:12:57.781Z,9.50
2018-08-04T06:15:26.378Z,11.93
2018-08-04T06:17:54.512Z,10.20
2018-08-04T06:20:22.591Z,11.12
2018-08-04T06:22:51.005Z,9.88
2018-08-04T06:25:18.920Z,10.95
2018-08-04T06:27:46.843Z,9.30
2018-08-04T06:30:14.912Z,12.80
2018-08-04T06:32:43.200Z,10.50
2018-08-04T06:35:11.292Z,10.78
2018-08-04T06:37:39.482Z,13.70
2018-08-04T06:40:07.885Z,10.93
2018-08-04T06:42:35.835Z,14.73
2018-08-04T06:45:04.175Z,7.87
2018-08-04T06:47:32.188Z,10.93
2018-08-04T06:50:00.040Z,14.07
2018-08-04T06:52:28.019Z,12.35
2018-08-04T06:54:55.944Z,11.65
2018-08-04T06:57:23.922Z,7.55
2018-08-04T06:59:51.922Z,7.75
2018-08-04T07:02:19.841Z,9.18
2018-08-04T07:04:47.859Z,13.00
2018-08-04T07:07:15.746Z,11.40
2018-08-04T07:09:43.640Z,10.88
2018-08-04T07:12:11.710Z,10.82
2018-08-04T07:14:40.241Z,7.83
2018-08-04T07:17:08.367Z,12.30
2018-08-04T07:19:36.367Z,12.28
2018-08-04T07:22:04.448Z,11.38
2018-08-04T07:24:32.522Z,6.87
2018-08-04T07:27:00.466Z,8.90
2018-08-04T07:29:28.887Z,7.47
2018-08-04T07:31:56.797Z,8.00
2018-08-04T07:34:24.719Z,10.50
2018-08-04T07:36:52.534Z,7.65
2018-08-04T07:39:20.375Z,7.67
2018-08-04T07:41:48.276Z,12.43
2018-08-04T07:44:16.285Z,13.38
2018-08-04T07:46:44.086Z,9.18
2018-08-04T07:49:11.941Z,9.48
2018-08-04T07:51:40.269Z,9.13
2018-08-04T07:54:08.134Z,7.50
2018-08-04T07:56:35.990Z,7.67
2018-08-04T07:59:03.753Z,11.90
2018-08-04T08:01:31.666Z,10.58
2018-08-04T08:03:59.631Z,9.30
2018-08-04T08:06:27.479Z,9.05
2018-08-04T08:08:55.344Z,9.50
2018-08-04T08:11:23.272Z,8.23
2018-08-04T08:13:51.452Z,11.20
2018-08-04T08:16:19.244Z,8.90
2018-08-04T08:18:47.087Z,5.75
2018-08-04T08:21:15.294Z,4.87
2018-08-04T08:23:43.242Z,6.20
2018-08-04T08:26:12.760Z,6.47
2018-08-04T08:28:41.520Z,5.53
2018-08-04T08:31:09.419Z,10.45
2018-08-04T08:33:38.161Z,5.87
2018-08-04T08:36:06.652Z,5.67
2018-08-04T08:38:34.633Z,5.60
2018-08-04T08:41:02.631Z,10.60
2018-08-04T08:43:30.716Z,6.25
2018-08-04T08:45:58.870Z,5.62
2018-08-04T08:48:26.708Z,7.70
2018-08-04T08:50:54.933Z,11.63
2018-08-04T08:53:23.066Z,9.20
2018-08-04T08:55:50.920Z,11.68
2018-08-04T08:58:18.924Z,11.83
2018-08-04T09:00:46.710Z,8.80
2018-08-04T09:03:14.636Z,6.00
2018-08-04T09:05:42.503Z,5.05
2018-08-04T09:08:10.371Z,5.42
2018-08-04T09:10:38.234Z,8.65
2018-08-04T09:13:06.499Z,9.75
2018-08-04T09:15:34.491Z,7.72
2018-08-04T09:18:02.225Z,4.95
2018-08-04T09:20:30.209Z,14.73
2018-08-04T09:22:58.116Z,6.03
2018-08-04T09:25:25.906Z,8.68
2018-08-04T09:27:53.862Z,7.53
2018-08-04T09:30:21.719Z,13.38
2018-08-04T09:32:49.581Z,5.55
2018-08-04T09:35:17.456Z,4.33
2018-08-04T09:37:45.256Z,8.18
2018-08-04T09:40:14.445Z,6.05
2018-08-04T09:42:43.555Z,5.95
2018-08-04T09:45:11.483Z,8.40
2018-08-04T09:47:40.146Z,5.08
2018-08-04T09:50:09.772Z,5.15
2018-08-04T09:52:37.646Z,6.67
2018-08-04T09:55:06.554Z,7.58
2018-08-04T09:57:34.693Z,9.23
2018-08-04T10:00:02.713Z,4.47
2018-08-04T10:02:30.524Z,6.67
2018-08-04T10:04:58.248Z,5.55
2018-08-04T10:07:26.046Z,9.33
2018-08-04T10:09:53.911Z,9.13
2018-08-04T10:12:21.785Z,7.47
2018-08-04T10:14:49.583Z,8.75
2018-08-04T10:17:17.355Z,7.92
2018-08-04T10:19:45.360Z,8.93
2018-08-04T10:22:13.416Z,7.78
2018-08-04T10:31:25.909Z,16.67
2018-08-04T10:33:53.885Z,8.00
2018-08-04T10:36:21.725Z,3.55
2018-08-04T10:38:49.959Z,6.05
2018-08-04T10:41:17.842Z,5.87
2018-08-04T10:43:45.607Z,5.65
2018-08-04T10:46:13.641Z,9.83
2018-08-04T10:48:41.605Z,7.33
2018-08-04T10:51:09.521Z,8.40
2018-08-04T10:53:38.017Z,6.92
2018-08-04T10:56:05.981Z,5.62
2018-08-04T10:58:33.846Z,5.42
2018-08-04T11:01:01.807Z,10.28
2018-08-04T11:03:29.694Z,9.58
2018-08-04T11:05:57.576Z,5.87
2018-08-04T11:08:25.852Z,6.72
2018-08-04T11:10:53.781Z,8.18
2018-08-04T11:13:21.589Z,10.43
2018-08-04T11:15:49.446Z,5.75
2018-08-04T11:18:17.366Z,5.60
2018-08-04T11:20:45.215Z,6.90
2018-08-04T11:23:13.160Z,5.42
2018-08-04T11:25:40.906Z,9.35
2018-08-04T11:28:08.911Z,5.22
2018-08-04T11:30:38.242Z,7.37
2018-08-04T11:33:06.035Z,8.78
2018-08-04T11:35:33.847Z,5.72
2018-08-04T11:39:31.530Z,8.43
2018-08-04T11:41:59.262Z,7.12
2018-08-04T11:44:27.096Z,12.82
2018-08-04T11:46:55.179Z,5.78
2018-08-04T11:49:23.096Z,5.75
2018-08-04T11:51:50.989Z,6.20
2018-08-04T11:54:18.913Z,6.67
2018-08-04T11:56:46.718Z,7.33
2018-08-04T11:59:14.704Z,4.92
2018-08-04T12:02:45.458Z,5.53
2018-08-04T12:05:13.246Z,6.78
2018-08-04T12:07:41.066Z,7.55
2018-08-04T12:10:09.167Z,6.67
2018-08-04T12:12:37.033Z,7.15
2018-08-04T12:15:05.121Z,7.70
2018-08-04T12:17:33.187Z,5.37
2018-08-04T12:20:00.985Z,6.75
2018-08-04T12:22:28.748Z,6.42
2018-08-04T12:24:56.986Z,6.20
2018-08-04T12:27:24.810Z,6.53
2018-08-04T12:29:52.598Z,6.47
2018-08-04T12:32:20.490Z,6.72
2018-08-04T12:34:48.225Z,9.58
2018-08-04T12:37:16.115Z,4.05
2018-08-04T12:39:44.386Z,5.97
2018-08-04T12:42:12.159Z,7.15
2018-08-04T12:44:40.028Z,12.98
2018-08-04T12:47:08.006Z,6.22
2018-08-04T12:49:35.857Z,24.95
2018-08-04T12:52:03.783Z,10.03
2018-08-04T12:54:33.226Z,5.78
2018-08-04T12:57:01.098Z,6.95
2018-08-04T12:59:28.948Z,7.08
2018-08-04T13:01:57.028Z,5.15
2018-08-04T13:04:24.756Z,7.40
2018-08-04T13:06:52.583Z,3.98
2018-08-04T13:09:20.387Z,6.00
2018-08-04T13:11:48.170Z,4.15
2018-08-04T13:14:16.058Z,4.25
2018-08-04T13:16:43.868Z,3.90
2018-08-04T13:19:11.608Z,3.72
2018-08-04T13:21:39.367Z,5.47
2018-08-04T13:24:07.786Z,5.22
2018-08-04T13:26:35.515Z,7.85
2018-08-04T13:29:03.387Z,6.95
2018-08-04T13:31:31.429Z,6.78
2018-08-04T13:33:59.299Z,5.10
2018-08-04T13:36:27.092Z,4.22
2018-08-04T13:38:55.017Z,4.15
2018-08-04T13:41:22.684Z,6.08
2018-08-04T13:43:50.407Z,8.93
2018-08-04T13:46:18.940Z,6.97
2018-08-04T13:48:46.788Z,5.35
2018-08-04T13:51:14.612Z,4.92
2018-08-04T13:53:42.453Z,4.80
2018-08-04T13:56:10.233Z,6.65
2018-08-04T13:58:38.018Z,9.15
2018-08-04T14:01:06.134Z,4.50
2018-08-04T14:03:34.027Z,5.08
2018-08-04T14:06:01.863Z,4.83
2018-08-04T14:08:30.784Z,6.17
2018-08-04T14:10:58.663Z,5.80
2018-08-04T14:13:26.468Z,6.90
2018-08-04T14:15:54.225Z,3.75
2018-08-04T14:18:22.055Z,6.42
2018-08-04T14:20:49.832Z,9.43
2018-08-04T14:23:18.136Z,7.67
2018-08-04T14:25:45.860Z,5.42
2018-08-04T14:29:16.711Z,6.72
2018-08-04T14:31:44.504Z,5.25
2018-08-04T14:34:12.291Z,5.15
2018-08-04T14:36:40.494Z,7.33
2018-08-04T14:39:11.491Z,6.12
2018-08-04T14:41:39.397Z,7.42
2018-08-04T14:44:07.632Z,10.90
2018-08-04T14:46:35.478Z,8.05
2018-08-04T14:49:03.224Z,7.10
2018-08-04T14:51:31.391Z,6.10
2018-08-04T14:53:59.412Z,4.80
2018-08-04T14:56:27.242Z,7.42
2018-08-04T14:58:55.422Z,6.87
2018-08-04T15:01:23.289Z,6.60
2018-08-04T15:03:51.034Z,4.87
2018-08-04T15:06:19.423Z,4.55
2018-08-04T15:08:47.276Z,6.65
2018-08-04T15:11:15.062Z,5.78
2018-08-04T15:13:42.931Z,6.87
2018-08-04T15:16:10.779Z,4.75
2018-08-04T15:18:39.057Z,4.72
2018-08-04T15:21:07.426Z,5.25
2018-08-04T15:23:35.310Z,7.40
2018-08-04T15:26:03.247Z,5.35
2018-08-04T15:28:31.634Z,3.87
2018-08-04T15:30:59.414Z,5.15
2018-08-04T15:33:27.196Z,3.87
2018-08-04T15:35:55.147Z,4.92
2018-08-04T15:38:22.972Z,5.10
2018-08-04T15:40:50.834Z,4.85
2018-08-04T15:43:19.214Z,3.62
2018-08-04T15:45:47.068Z,8.25
2018-08-04T15:48:15.810Z,4.92
2018-08-04T15:50:43.896Z,4.15
2018-08-04T15:53:11.725Z,5.72
2018-08-04T15:55:39.510Z,5.58
2018-08-04T15:58:07.831Z,10.60
2018-08-04T16:00:35.637Z,6.03
2018-08-04T16:03:03.446Z,4.65
2018-08-04T16:05:31.660Z,9.05
2018-08-04T16:07:59.535Z,6.25
2018-08-04T16:10:27.416Z,7.17
2018-08-04T16:12:55.238Z,8.25
2018-08-04T16:15:23.235Z,10.03
2018-08-04T16:17:51.035Z,8.25
2018-08-04T16:20:19.275Z,5.62
2018-08-04T16:22:47.037Z,8.13
2018-08-04T16:25:15.222Z,7.65
2018-08-04T16:27:43.423Z,8.38
2018-08-04T16:30:11.585Z,12.75
2018-08-04T16:32:40.147Z,5.40
2018-08-04T16:35:11.112Z,7.45
2018-08-04T16:37:39.057Z,7.97
2018-08-04T16:40:07.020Z,5.67
2018-08-04T16:42:35.268Z,6.00
2018-08-04T16:45:04.369Z,5.50
2018-08-04T16:47:33.312Z,6.50
2018-08-04T16:50:01.291Z,8.15
2018-08-04T16:52:29.215Z,6.90
2018-08-04T16:54:57.119Z,8.78
2018-08-04T16:57:25.501Z,8.40
2018-08-04T16:59:53.481Z,6.22
2018-08-04T17:02:21.416Z,4.75
2018-08-04T17:04:49.253Z,8.00
2018-08-04T17:07:17.014Z,9.30
2018-08-04T17:09:44.811Z,7.08
2018-08-04T17:12:12.705Z,8.70
2018-08-04T17:14:40.530Z,6.58
2018-08-04T17:17:08.383Z,9.00
2018-08-04T17:19:36.283Z,7.60
2018-08-04T17:22:04.195Z,6.70
2018-08-04T17:24:32.199Z,6.30
2018-08-04T17:27:00.045Z,8.08
2018-08-04T17:29:28.010Z,9.25
2018-08-04T17:31:56.086Z,9.08
2018-08-04T17:34:24.135Z,5.50
2018-08-04T17:36:52.264Z,7.87
2018-08-04T17:39:20.142Z,5.65
2018-08-04T17:41:48.033Z,11.00
2018-08-04T17:44:16.119Z,8.05
2018-08-04T17:46:43.926Z,6.67
2018-08-04T17:49:12.187Z,6.85
2018-08-04T17:51:40.383Z,6.25
2018-08-04T17:54:08.544Z,7.87
2018-08-04T17:56:36.498Z,4.70
2018-08-04T17:59:04.355Z,6.90
2018-08-04T18:01:32.158Z,8.55
2018-08-04T18:04:00.173Z,6.47
2018-08-04T18:06:28.099Z,10.25
2018-08-04T18:08:56.041Z,6.37
2018-08-04T18:11:24.134Z,7.87
2018-08-04T18:13:52.216Z,10.98
2018-08-04T18:16:21.252Z,12.80
2018-08-04T18:18:49.320Z,7.60
2018-08-04T18:21:17.103Z,8.88
2018-08-04T18:23:45.255Z,8.33
2018-08-04T18:26:13.649Z,10.40
2018-08-04T18:28:41.655Z,7.15
2018-08-04T18:31:09.602Z,9.68
2018-08-04T18:33:38.010Z,8.78
2018-08-04T18:36:42.519Z,8.93
2018-08-04T18:39:11.419Z,10.48
2018-08-04T18:41:39.637Z,8.78
2018-08-04T18:44:08.280Z,7.92
2018-08-04T18:46:36.647Z,8.23
2018-08-04T18:49:04.758Z,10.88
2018-08-04T18:51:32.811Z,7.42
2018-08-04T18:54:01.072Z,6.92
2018-08-04T18:56:29.015Z,7.67
2018-08-04T18:58:56.881Z,9.60
2018-08-04T19:01:24.853Z,6.97
2018-08-04T19:03:52.876Z,8.08
2018-08-04T19:06:21.369Z,8.25
2018-08-04T19:08:49.900Z,7.70
2018-08-04T19:11:17.766Z,9.13
2018-08-04T19:13:45.881Z,8.18
2018-08-04T19:16:13.991Z,13.75
2018-08-04T19:18:41.809Z,5.80
2018-08-04T19:21:09.754Z,6.30
2018-08-04T19:23:38.280Z,6.58
2018-08-04T19:26:06.305Z,8.68
2018-08-04T19:28:34.304Z,8.15
2018-08-04T19:31:02.359Z,7.17
2018-08-04T19:33:30.186Z,8.60
2018-08-04T19:35:58.111Z,6.50
2018-08-04T19:38:26.296Z,6.35
2018-08-04T19:40:54.368Z,10.45
2018-08-04T19:43:22.467Z,8.25
2018-08-04T19:45:50.540Z,9.83
2018-08-04T19:48:18.400Z,6.75
2018-08-04T19:50:46.273Z,5.53
2018-08-04T19:53:14.602Z,7.85
2018-08-04T19:55:42.477Z,8.13
2018-08-04T19:58:10.646Z,6.85
2018-08-04T20:00:39.081Z,6.72
2018-08-04T20:03:07.607Z,6.90
2018-08-04T20:05:35.598Z,9.50
2018-08-04T20:08:04.083Z,8.83
2018-08-04T20:10:32.277Z,7.47
2018-08-04T20:13:00.242Z,8.13
2018-08-04T20:15:29.163Z,8.30
2018-08-04T20:17:57.195Z,7.55
2018-08-04T20:20:25.271Z,8.70
2018-08-04T20:22:53.711Z,7.90
2018-08-04T20:25:21.719Z,8.58
2018-08-04T20:27:49.926Z,7.17
2018-08-04T20:30:17.974Z,10.45
2018-08-04T20:32:45.868Z,11.40
2018-08-04T20:35:13.872Z,8.48
2018-08-04T20:37:41.850Z,8.33
2018-08-04T20:40:09.778Z,10.55
2018-08-04T20:42:37.668Z,8.78
2018-08-04T20:45:05.983Z,11.55
2018-08-04T20:47:33.907Z,7.65
2018-08-04T20:50:01.989Z,14.33
2018-08-04T20:52:29.855Z,8.45
2018-08-04T20:54:57.761Z,6.85
2018-08-04T20:57:25.773Z,8.18
2018-08-04T20:59:54.002Z,8.83
2018-08-04T21:02:21.933Z,8.88
2018-08-04T21:04:50.157Z,10.72
2018-08-04T21:07:18.128Z,7.70
2018-08-04T21:09:46.027Z,11.85
2018-08-04T21:12:14.048Z,10.95
2018-08-04T21:14:41.959Z,9.60
2018-08-04T21:17:10.316Z,9.18
2018-08-04T21:19:38.391Z,8.63
2018-08-04T21:22:06.663Z,8.78
2018-08-04T21:24:34.625Z,9.95
2018-08-04T21:27:03.184Z,11.38
2018-08-04T21:29:31.373Z,9.25
2018-08-04T21:31:59.409Z,9.28
2018-08-04T21:34:27.784Z,12.15
2018-08-04T21:36:55.662Z,9.20
2018-08-04T21:39:23.666Z,8.58
2018-08-04T21:41:51.820Z,9.25
2018-08-04T21:44:19.722Z,13.10
2018-08-04T21:46:48.761Z,8.38
2018-08-04T21:49:17.464Z,9.10
2018-08-04T21:51:46.687Z,10.00
2018-08-04T21:54:19.915Z,9.18
2018-08-04T21:56:44.496Z,10.88
2018-08-04T21:59:12.410Z,12.35
2018-08-04T22:01:46.912Z,8.18
2018-08-04T22:04:14.784Z,9.10
2018-08-04T22:07:51.744Z,10.72
2018-08-04T22:10:19.776Z,13.40
2018-08-04T22:12:47.981Z,10.10
2018-08-04T22:15:16.454Z,8.75
2018-08-04T22:17:44.488Z,9.65
2018-08-04T22:20:13.916Z,12.37
2018-08-04T22:22:42.826Z,13.00
2018-08-04T22:25:15.049Z,9.08
2018-08-04T22:27:43.146Z,14.47
2018-08-04T22:30:13.306Z,10.68
2018-08-04T22:32:42.128Z,12.13
2018-08-04T22:35:10.531Z,13.10
2018-08-04T22:37:39.198Z,8.93
2018-08-04T22:40:08.248Z,7.92
2018-08-04T22:42:36.958Z,13.40
2018-08-04T22:45:16.098Z,11.90
2018-08-04T22:47:44.920Z,10.40
2018-08-04T22:50:13.067Z,11.80
2018-08-04T22:52:41.126Z,17.95
2018-08-04T22:55:09.609Z,10.65
2018-08-04T22:57:37.676Z,10.27
2018-08-04T23:00:06.873Z,10.93
2018-08-04T23:02:34.815Z,9.93
2018-08-04T23:05:02.976Z,11.63
2018-08-04T23:07:31.003Z,12.23
2018-08-04T23:09:59.528Z,9.80
2018-08-04T23:12:27.493Z,9.00
2018-08-04T23:14:55.560Z,13.33
2018-08-04T23:17:23.704Z,11.67
2018-08-04T23:19:51.748Z,14.17
2018-08-04T23:22:19.787Z,12.73
2018-08-04T23:24:48.242Z,16.43
2018-08-04T23:27:16.385Z,13.30
2018-08-04T23:29:44.459Z,10.03
2018-08-04T23:32:12.915Z,11.87
2018-08-04T23:34:40.959Z,11.27
2018-08-04T23:37:09.041Z,13.60
2018-08-04T23:39:37.144Z,11.73
2018-08-04T23:42:05.246Z,10.93
2018-08-04T23:44:33.232Z,10.17
2018-08-04T23:47:01.474Z,9.40
2018-08-04T23:49:29.468Z,12.40
2018-08-04T23:51:57.334Z,12.63
2018-08-04T23:54:25.547Z,10.93
2018-08-04T23:56:53.495Z,11.77
2018-08-04T23:59:21.306Z,10.47
